createdAt,value
2023-04-02T00:00:37.764Z,92828.78
2023-04-02T00:01:39.491Z,92827.59
2023-04-02T00:02:54.204Z,92835.53
2023-04-02T00:03:59.458Z,92831.00
2023-04-02T00:05:16.614Z,92830.66
2023-04-02T00:06:34.478Z,92830.09
2023-04-02T00:07:33.420Z,92825.19
2023-04-02T00:08:41.113Z,92839.72
2023-04-02T00:09:38.288Z,92838.47
2023-04-02T00:10:39.131Z,92830.78
2023-04-02T00:11:38.692Z,92827.94
2023-04-02T00:12:35.363Z,92829.34
2023-04-02T00:13:36.482Z,92825.72
2023-04-02T00:14:35.134Z,92793.69
2023-04-02T00:15:31.884Z,92817.44
2023-04-02T00:16:29.216Z,92829.88
2023-04-02T00:17:26.132Z,92818.31
2023-04-02T00:18:23.296Z,92809.75
2023-04-02T00:19:25.752Z,92816.56
2023-04-02T00:20:22.647Z,92816.56
2023-04-02T00:21:24.458Z,92818.34
2023-04-02T00:22:25.659Z,92825.03
2023-04-02T00:23:23.513Z,92806.66
2023-04-02T00:24:22.111Z,92827.53
2023-04-02T00:25:19.207Z,92752.97
2023-04-02T00:26:37.796Z,92832.44
2023-04-02T00:27:34.403Z,92785.00
2023-04-02T00:28:31.200Z,92826.38
2023-04-02T00:29:27.818Z,92833.97
2023-04-02T00:30:24.514Z,92834.19
2023-04-02T00:31:21.530Z,92833.28
2023-04-02T00:32:26.014Z,92834.19
2023-04-02T00:33:26.856Z,92815.03
2023-04-02T00:34:36.238Z,92832.66
2023-04-02T00:35:38.545Z,92833.63
2023-04-02T00:36:35.646Z,92828.47
2023-04-02T00:37:39.002Z,92839.25
2023-04-02T00:38:36.181Z,92838.47
2023-04-02T00:39:41.673Z,92844.84
2023-04-02T00:40:39.645Z,92844.19
2023-04-02T00:41:38.784Z,92817.78
2023-04-02T00:42:40.191Z,92837.03
2023-04-02T00:43:39.303Z,92804.22
2023-04-02T00:44:42.959Z,92844.88
2023-04-02T00:45:42.352Z,92814.34
2023-04-02T00:46:49.816Z,92846.59
2023-04-02T00:47:46.598Z,92825.47
2023-04-02T00:49:08.059Z,92840.66
2023-04-02T00:50:07.779Z,92840.56
2023-04-02T00:51:35.417Z,92831.00
2023-04-02T00:52:33.253Z,92823.63
2023-04-02T00:53:31.601Z,92835.06
2023-04-02T00:54:34.109Z,92827.81
2023-04-02T00:55:39.388Z,92821.75
2023-04-02T00:56:43.378Z,92824.50
2023-04-02T00:57:43.048Z,92808.78
2023-04-02T00:58:40.571Z,92826.50
2023-04-02T00:59:50.866Z,92824.72
2023-04-02T01:00:50.805Z,92811.59
2023-04-02T01:01:54.486Z,92820.63
2023-04-02T01:03:19.566Z,92820.63
2023-04-02T01:04:34.236Z,92803.59
2023-04-02T01:05:35.050Z,92827.38
2023-04-02T01:06:38.503Z,92826.59
2023-04-02T01:08:19.957Z,92831.09
2023-04-02T01:09:38.637Z,92834.84
2023-04-02T01:11:05.169Z,92833.66
2023-04-02T01:12:08.310Z,92840.81
2023-04-02T01:13:18.797Z,92831.00
2023-04-02T01:14:43.767Z,92833.41
2023-04-02T01:15:47.707Z,92828.91
2023-04-02T01:16:46.347Z,92831.34
2023-04-02T01:18:06.499Z,92800.19
2023-04-02T01:19:26.062Z,92825.72
2023-04-02T01:20:28.308Z,92826.38
2023-04-02T01:21:26.095Z,92827.81
2023-04-02T01:22:26.195Z,92823.19
2023-04-02T01:23:25.914Z,92830.88
2023-04-02T01:24:26.546Z,92823.63
2023-04-02T01:25:46.066Z,92821.75
2023-04-02T01:26:58.073Z,92823.63
2023-04-02T01:28:06.530Z,92830.34
2023-04-02T01:29:10.742Z,92831.97
2023-04-02T01:30:11.962Z,92822.53
2023-04-02T01:31:10.767Z,92829.59
2023-04-02T01:32:12.036Z,92823.19
2023-04-02T01:33:08.636Z,92824.16
2023-04-02T01:34:08.604Z,92818.44
2023-04-02T01:35:05.924Z,92819.66
2023-04-02T01:36:47.220Z,92821.09
2023-04-02T01:37:50.091Z,92827.38
2023-04-02T01:39:06.416Z,92821.09
2023-04-02T01:40:47.211Z,92820.22
2023-04-02T01:42:05.080Z,92819.56
2023-04-02T01:43:28.919Z,92824.19
2023-04-02T01:44:43.302Z,92826.38
2023-04-02T01:45:40.566Z,92825.59
2023-04-02T01:46:41.434Z,92822.69
2023-04-02T01:47:38.981Z,92817.19
2023-04-02T01:48:35.690Z,92824.44
2023-04-02T01:49:32.485Z,92824.56
2023-04-02T01:50:38.636Z,92823.00
2023-04-02T01:51:39.574Z,92824.69
2023-04-02T01:52:45.185Z,92827.84
2023-04-02T01:53:41.955Z,92828.63
2023-04-02T01:54:39.288Z,92811.63
2023-04-02T01:55:38.621Z,92829.59
2023-04-02T01:56:35.801Z,92820.41
2023-04-02T01:57:32.550Z,92826.06
2023-04-02T01:58:32.005Z,92831.13
2023-04-02T01:59:29.505Z,92831.84
2023-04-02T02:00:30.296Z,92835.56
2023-04-02T02:01:33.682Z,92832.63
2023-04-02T02:02:30.866Z,92826.25
2023-04-02T02:03:28.049Z,92822.41
2023-04-02T02:04:25.258Z,92817.91
2023-04-02T02:05:23.351Z,92772.88
2023-04-02T02:06:20.527Z,92825.56
2023-04-02T02:07:20.595Z,92822.16
2023-04-02T02:08:31.681Z,92819.22
2023-04-02T02:09:32.424Z,92805.88
2023-04-02T02:10:36.992Z,92820.50
2023-04-02T02:11:36.434Z,92821.16
2023-04-02T02:12:33.221Z,92811.41
2023-04-02T02:13:32.202Z,92818.34
2023-04-02T02:14:30.855Z,92819.03
2023-04-02T02:15:28.765Z,92813.50
2023-04-02T02:16:28.855Z,92814.28
2023-04-02T02:17:34.507Z,92811.41
2023-04-02T02:18:31.627Z,92822.09
2023-04-02T02:20:01.869Z,92818.25
2023-04-02T02:21:02.886Z,92821.44
2023-04-02T02:22:19.138Z,92820.31
2023-04-02T02:23:16.660Z,92825.16
2023-04-02T02:24:24.182Z,92821.09
2023-04-02T02:25:25.468Z,92814.72
2023-04-02T02:26:25.626Z,92767.28
2023-04-02T02:27:22.736Z,92823.38
2023-04-02T02:28:33.239Z,92823.09
2023-04-02T02:29:34.323Z,92822.09
2023-04-02T02:30:36.887Z,92817.91
2023-04-02T02:31:36.180Z,92792.38
2023-04-02T02:32:37.247Z,92829.69
2023-04-02T02:33:46.046Z,92825.03
2023-04-02T02:34:56.054Z,92825.41
2023-04-02T02:36:07.543Z,92790.50
2023-04-02T02:37:17.980Z,92807.13
2023-04-02T02:38:32.637Z,92821.84
2023-04-02T02:39:39.045Z,92819.88
2023-04-02T02:40:43.586Z,92820.56
2023-04-02T02:41:46.935Z,92829.22
2023-04-02T02:42:49.618Z,92824.72
2023-04-02T02:43:57.995Z,92802.63
2023-04-02T02:44:57.166Z,92832.44
2023-04-02T02:45:56.887Z,92827.13
2023-04-02T02:47:03.516Z,92834.06
2023-04-02T02:48:02.498Z,92820.44
2023-04-02T02:49:02.409Z,92831.00
2023-04-02T02:50:03.641Z,92826.59
2023-04-02T02:51:01.527Z,92821.63
2023-04-02T02:52:04.503Z,92828.78
2023-04-02T02:53:07.811Z,92804.81
2023-04-02T02:54:05.751Z,92837.59
2023-04-02T02:55:18.692Z,92833.75
2023-04-02T02:56:16.136Z,92835.84
2023-04-02T02:57:22.798Z,92838.16
2023-04-02T02:58:32.810Z,92822.53
2023-04-02T02:59:31.315Z,92836.28
2023-04-02T03:00:28.357Z,92797.22
2023-04-02T03:01:25.075Z,92836.84
2023-04-02T03:02:22.167Z,92835.38
2023-04-02T03:03:27.500Z,92782.22
2023-04-02T03:04:25.167Z,92839.78
2023-04-02T03:05:24.510Z,92823.41
2023-04-02T03:06:21.360Z,92830.78
2023-04-02T03:07:19.332Z,92816.78
2023-04-02T03:08:33.162Z,92825.59
2023-04-02T03:09:48.928Z,92827.19
2023-04-02T03:10:54.110Z,92824.69
2023-04-02T03:12:15.489Z,92826.56
2023-04-02T03:13:35.510Z,92814.56
2023-04-02T03:14:49.019Z,92815.78
2023-04-02T03:16:11.400Z,92813.00
2023-04-02T03:17:18.838Z,92801.84
2023-04-02T03:18:41.128Z,92792.13
2023-04-02T03:19:49.824Z,92814.25
2023-04-02T03:21:02.871Z,92764.28
2023-04-02T03:22:08.778Z,92815.25
2023-04-02T03:23:32.659Z,92814.06
2023-04-02T03:24:41.617Z,92824.25
2023-04-02T03:25:47.358Z,92822.41
2023-04-02T03:26:50.071Z,92820.09
2023-04-02T03:27:50.209Z,92824.16
2023-04-02T03:28:57.325Z,92800.91
2023-04-02T03:30:27.434Z,92827.94
2023-04-02T03:31:31.390Z,92828.31
2023-04-02T03:32:32.918Z,92830.22
2023-04-02T03:34:12.217Z,92827.56
2023-04-02T03:35:21.784Z,92825.22
2023-04-02T03:36:30.746Z,92826.94
2023-04-02T03:37:38.651Z,92833.19
2023-04-02T03:38:43.640Z,92828.47
2023-04-02T03:40:01.819Z,92835.28
2023-04-02T03:41:04.880Z,92839.38
2023-04-02T03:42:14.920Z,92792.34
2023-04-02T03:43:33.552Z,92837.06
2023-04-02T03:44:48.037Z,92800.38
2023-04-02T03:45:50.907Z,92840.34
2023-04-02T03:46:57.694Z,92846.28
2023-04-02T03:48:18.113Z,92845.38
2023-04-02T03:49:46.616Z,92846.03
2023-04-02T03:50:43.178Z,92843.75
2023-04-02T03:51:50.967Z,92844.41
2023-04-02T03:52:48.444Z,92845.72
2023-04-02T03:53:46.426Z,92843.00
2023-04-02T03:54:54.163Z,92817.78
2023-04-02T03:55:52.428Z,92842.53
2023-04-02T03:56:49.621Z,92845.84
2023-04-02T03:58:20.854Z,92843.88
2023-04-02T03:59:24.812Z,92841.56
2023-04-02T04:00:35.646Z,92836.06
2023-04-02T04:01:38.633Z,92820.97
2023-04-02T04:02:43.137Z,92787.41
2023-04-02T04:03:44.024Z,92841.22
2023-04-02T04:04:42.971Z,92840.34
2023-04-02T04:05:48.747Z,92844.22
2023-04-02T04:06:49.731Z,92802.59
2023-04-02T04:07:47.811Z,92806.13
2023-04-02T04:08:50.609Z,92844.53
2023-04-02T04:09:51.539Z,92848.72
2023-04-02T04:10:55.317Z,92840.56
2023-04-02T04:11:58.803Z,92853.78
2023-04-02T04:13:02.517Z,92850.69
2023-04-02T04:14:21.456Z,92850.69
2023-04-02T04:15:33.300Z,92845.88
2023-04-02T04:16:36.061Z,92852.00
2023-04-02T04:17:38.685Z,92854.03
2023-04-02T04:18:50.064Z,92860.84
2023-04-02T04:19:48.498Z,92805.13
2023-04-02T04:20:46.162Z,92855.78
2023-04-02T04:21:45.231Z,92839.38
2023-04-02T04:22:41.830Z,92854.22
2023-04-02T04:23:41.219Z,92809.31
2023-04-02T04:24:45.574Z,92796.94
2023-04-02T04:25:42.216Z,92814.06
2023-04-02T04:26:49.653Z,92855.97
2023-04-02T04:28:08.327Z,92855.78
2023-04-02T04:29:45.555Z,92858.41
2023-04-02T04:31:04.164Z,92850.16
2023-04-02T04:32:36.056Z,92857.75
2023-04-02T04:33:43.718Z,92847.28
2023-04-02T04:34:46.995Z,92861.94
2023-04-02T04:35:50.962Z,92861.72
2023-04-02T04:36:55.240Z,92853.66
2023-04-02T04:37:59.364Z,92859.53
2023-04-02T04:39:00.580Z,92860.94
2023-04-02T04:40:03.133Z,92864.38
2023-04-02T04:41:33.662Z,92860.41
2023-04-02T04:42:33.755Z,92867.56
2023-04-02T04:43:42.911Z,92880.22
2023-04-02T04:44:59.954Z,92874.81
2023-04-02T04:46:03.858Z,92876.56
2023-04-02T04:47:08.108Z,92875.03
2023-04-02T04:48:15.422Z,92878.19
2023-04-02T04:49:22.413Z,92869.56
2023-04-02T04:50:32.346Z,92875.94
2023-04-02T04:51:44.113Z,92854.38
2023-04-02T04:52:42.840Z,92876.53
2023-04-02T04:53:51.493Z,92874.69
2023-04-02T04:54:48.606Z,92836.91
2023-04-02T04:55:47.633Z,92879.63
2023-04-02T04:56:51.884Z,92874.09
2023-04-02T04:57:50.861Z,92881.84
2023-04-02T04:58:53.858Z,92881.63
2023-04-02T04:59:59.048Z,92874.00
2023-04-02T05:00:58.459Z,92873.88
2023-04-02T05:02:09.397Z,92876.88
2023-04-02T05:03:17.356Z,92883.94
2023-04-02T05:04:19.488Z,92888.25
2023-04-02T05:05:25.068Z,92890.97
2023-04-02T05:06:39.709Z,92888.41
2023-04-02T05:07:45.934Z,92891.34
2023-04-02T05:08:49.272Z,92896.06
2023-04-02T05:10:11.915Z,92893.97
2023-04-02T05:11:19.430Z,92898.19
2023-04-02T05:12:30.377Z,92896.41
2023-04-02T05:13:55.029Z,92888.66
2023-04-02T05:14:58.347Z,92889.56
2023-04-02T05:16:16.238Z,92893.06
2023-04-02T05:17:27.837Z,92888.00
2023-04-02T05:18:34.894Z,92887.16
2023-04-02T05:19:56.781Z,92881.75
2023-04-02T05:21:18.320Z,92881.75
2023-04-02T05:22:23.096Z,92884.66
2023-04-02T05:23:31.215Z,92871.09
2023-04-02T05:24:34.339Z,92883.16
2023-04-02T05:25:32.451Z,92887.09
2023-04-02T05:26:33.671Z,92827.91
2023-04-02T05:27:52.847Z,92885.28
2023-04-02T05:29:02.690Z,92898.97
2023-04-02T05:30:28.505Z,92890.31
2023-04-02T05:31:38.137Z,92893.53
2023-04-02T05:32:41.440Z,92900.66
2023-04-02T05:33:42.408Z,92894.66
2023-04-02T05:34:41.626Z,92812.31
2023-04-02T05:35:44.482Z,92880.56
2023-04-02T05:36:42.635Z,92903.56
2023-04-02T05:37:41.021Z,92878.91
2023-04-02T05:38:43.556Z,92905.09
2023-04-02T05:39:44.406Z,92907.28
2023-04-02T05:40:46.383Z,92902.69
2023-04-02T05:41:46.049Z,92906.91
2023-04-02T05:42:48.210Z,92865.59
2023-04-02T05:43:48.757Z,92906.13
2023-04-02T05:44:56.452Z,92906.22
2023-04-02T05:45:58.297Z,92906.22
2023-04-02T05:47:00.283Z,92903.19
2023-04-02T05:48:01.857Z,92903.31
2023-04-02T05:49:00.161Z,92902.41
2023-04-02T05:50:09.578Z,92905.00
2023-04-02T05:51:12.023Z,92874.34
2023-04-02T05:52:12.983Z,92904.97
2023-04-02T05:53:12.613Z,92913.13
2023-04-02T05:54:23.198Z,92910.25
2023-04-02T05:55:19.874Z,92910.28
2023-04-02T05:56:21.956Z,92915.25
2023-04-02T05:57:39.369Z,92921.63
2023-04-02T05:59:04.881Z,92916.16
2023-04-02T06:00:07.570Z,92916.94
2023-04-02T06:01:31.571Z,92914.97
2023-04-02T06:02:36.686Z,92913.78
2023-04-02T06:03:49.522Z,92906.94
2023-04-02T06:05:12.835Z,92842.06
2023-04-02T06:06:19.121Z,92913.28
2023-04-02T06:07:21.831Z,92914.03
2023-04-02T06:08:24.478Z,92909.88
2023-04-02T06:09:27.656Z,92913.78
2023-04-02T06:10:28.938Z,92914.44
2023-04-02T06:11:32.210Z,92898.41
2023-04-02T06:12:46.643Z,92913.31
2023-04-02T06:13:43.405Z,92918.16
2023-04-02T06:14:40.211Z,92918.50
2023-04-02T06:15:38.431Z,92913.31
2023-04-02T06:16:36.860Z,92919.91
2023-04-02T06:17:46.813Z,92916.50
2023-04-02T06:18:44.383Z,92919.63
2023-04-02T06:19:41.339Z,92910.94
2023-04-02T06:20:37.942Z,92914.59
2023-04-02T06:21:34.549Z,92910.25
2023-04-02T06:22:31.104Z,92913.00
2023-04-02T06:23:41.274Z,92917.13
2023-04-02T06:24:41.179Z,92928.66
2023-04-02T06:25:48.803Z,92907.72
2023-04-02T06:27:08.937Z,92913.28
2023-04-02T06:28:12.003Z,92915.81
2023-04-02T06:29:17.006Z,92913.25
2023-04-02T06:30:19.319Z,92921.13
2023-04-02T06:31:28.916Z,92898.47
2023-04-02T06:32:28.393Z,92921.94
2023-04-02T06:33:25.042Z,92912.94
2023-04-02T06:34:24.756Z,92931.63
2023-04-02T06:35:21.588Z,92921.69
2023-04-02T06:36:19.981Z,92928.22
2023-04-02T06:37:25.889Z,92921.59
2023-04-02T06:38:27.556Z,92921.22
2023-04-02T06:39:27.151Z,92916.63
2023-04-02T06:40:52.973Z,92919.69
2023-04-02T06:42:07.685Z,92895.53
2023-04-02T06:43:16.544Z,92925.25
2023-04-02T06:44:19.512Z,92920.25
2023-04-02T06:45:26.171Z,92862.50
2023-04-02T06:46:34.452Z,92921.72
2023-04-02T06:47:38.657Z,92918.75
2023-04-02T06:48:37.826Z,92916.69
2023-04-02T06:49:46.942Z,92916.78
2023-04-02T06:51:05.614Z,92919.84
2023-04-02T06:52:05.974Z,92921.56
2023-04-02T06:53:06.501Z,92917.16
2023-04-02T06:54:03.511Z,92921.78
2023-04-02T06:55:00.914Z,92925.25
2023-04-02T06:56:36.044Z,92931.13
2023-04-02T06:57:35.837Z,92928.63
2023-04-02T06:58:33.155Z,92921.59
2023-04-02T06:59:29.835Z,92929.56
2023-04-02T07:00:41.414Z,92924.19
2023-04-02T07:01:43.223Z,92926.94
2023-04-02T07:02:39.969Z,92878.06
2023-04-02T07:03:36.913Z,92928.53
2023-04-02T07:04:33.927Z,92885.63
2023-04-02T07:05:30.690Z,92937.34
2023-04-02T07:06:27.377Z,92937.84
2023-04-02T07:07:24.001Z,92938.78
2023-04-02T07:08:21.408Z,92945.91
2023-04-02T07:09:18.785Z,92940.47
2023-04-02T07:10:15.673Z,92944.53
2023-04-02T07:11:18.242Z,92943.84
2023-04-02T07:12:23.763Z,92941.22
2023-04-02T07:13:22.725Z,92892.09
2023-04-02T07:14:19.406Z,92947.28
2023-04-02T07:15:19.160Z,92956.84
2023-04-02T07:16:19.343Z,92944.78
2023-04-02T07:17:17.978Z,92804.25
2023-04-02T07:18:29.483Z,92948.03
2023-04-02T07:19:26.076Z,92893.03
2023-04-02T07:20:34.619Z,92941.50
2023-04-02T07:21:31.686Z,92927.56
2023-04-02T07:22:28.294Z,92942.38
2023-04-02T07:23:25.581Z,92914.41
2023-04-02T07:24:22.248Z,92956.41
2023-04-02T07:25:18.915Z,92948.81
2023-04-02T07:26:22.295Z,92952.34
2023-04-02T07:27:18.968Z,92953.84
2023-04-02T07:28:16.151Z,92951.09
2023-04-02T07:29:16.184Z,92954.78
2023-04-02T07:30:12.991Z,92943.00
2023-04-02T07:31:27.234Z,92951.28
2023-04-02T07:32:23.893Z,92960.50
2023-04-02T07:33:23.564Z,92962.91
2023-04-02T07:34:20.188Z,92924.84
2023-04-02T07:35:16.988Z,92959.13
2023-04-02T07:36:16.952Z,92965.53
2023-04-02T07:37:14.710Z,92957.03
2023-04-02T07:38:11.622Z,92957.50
2023-04-02T07:39:08.257Z,92961.47
2023-04-02T07:40:20.655Z,92953.66
2023-04-02T07:41:19.572Z,92956.97
2023-04-02T07:42:16.244Z,92961.41
2023-04-02T07:43:12.976Z,92940.00
2023-04-02T07:44:10.948Z,92956.63
2023-04-02T07:45:08.329Z,92954.16
2023-04-02T07:46:06.491Z,92956.50
2023-04-02T07:47:03.481Z,92955.63
2023-04-02T07:48:08.640Z,92957.97
2023-04-02T07:49:05.785Z,92945.16
2023-04-02T07:50:02.446Z,92959.22
2023-04-02T07:51:00.411Z,92954.00
2023-04-02T07:51:57.065Z,92960.78
2023-04-02T07:52:53.712Z,92962.59
2023-04-02T07:53:55.846Z,92957.75
2023-04-02T07:54:52.764Z,92943.97
2023-04-02T07:55:52.806Z,92970.16
2023-04-02T07:56:49.484Z,92963.00
2023-04-02T07:57:51.405Z,92965.34
2023-04-02T07:58:48.741Z,92962.19
2023-04-02T07:59:45.469Z,92951.91
2023-04-02T08:00:42.079Z,92959.97
2023-04-02T08:01:38.718Z,92963.53
2023-04-02T08:02:35.526Z,92961.88
2023-04-02T08:03:33.005Z,92959.22
2023-04-02T08:04:30.126Z,92957.66
2023-04-02T08:05:27.878Z,92952.25
2023-04-02T08:06:25.739Z,92953.50
2023-04-02T08:07:22.423Z,92948.91
2023-04-02T08:08:19.546Z,92963.13
2023-04-02T08:09:17.566Z,92943.94
2023-04-02T08:10:14.254Z,92954.06
2023-04-02T08:11:11.081Z,92962.91
2023-04-02T08:12:08.053Z,92967.47
2023-04-02T08:13:04.682Z,92963.53
2023-04-02T08:14:01.457Z,92955.97
2023-04-02T08:14:58.406Z,92975.41
2023-04-02T08:15:58.744Z,92967.00
2023-04-02T08:16:56.182Z,92956.97
2023-04-02T08:17:53.662Z,92967.03
2023-04-02T08:18:50.466Z,92972.78
2023-04-02T08:19:54.739Z,92964.84
2023-04-02T08:20:52.770Z,92962.53
2023-04-02T08:21:51.665Z,92968.56
2023-04-02T08:22:49.426Z,92973.91
2023-04-02T08:23:46.095Z,92972.09
2023-04-02T08:24:42.698Z,92972.09
2023-04-02T08:25:39.377Z,92977.84
2023-04-02T08:26:36.562Z,92972.06
2023-04-02T08:27:33.215Z,92976.69
2023-04-02T08:28:30.154Z,92935.63
2023-04-02T08:29:29.228Z,92962.50
2023-04-02T08:30:26.406Z,92938.41
2023-04-02T08:31:23.659Z,92968.69
2023-04-02T08:32:20.447Z,92977.41
2023-04-02T08:33:18.116Z,92978.56
2023-04-02T08:34:14.670Z,92977.00
2023-04-02T08:35:16.356Z,92968.28
2023-04-02T08:36:18.025Z,92985.06
2023-04-02T08:37:14.771Z,92978.59
2023-04-02T08:38:15.523Z,92960.63
2023-04-02T08:39:12.794Z,92937.59
2023-04-02T08:40:22.371Z,92974.78
2023-04-02T08:41:27.937Z,92974.75
2023-04-02T08:43:12.625Z,92981.59
2023-04-02T08:44:18.137Z,92976.25
2023-04-02T08:45:25.276Z,92978.63
2023-04-02T08:46:45.037Z,92985.13
2023-04-02T08:47:44.384Z,92977.84
2023-04-02T08:48:48.386Z,92989.13
2023-04-02T08:49:54.765Z,92984.59
2023-04-02T08:50:52.108Z,92993.72
2023-04-02T08:51:49.242Z,92978.66
2023-04-02T08:52:46.096Z,92987.50
2023-04-02T08:53:42.816Z,92984.75
2023-04-02T08:54:43.605Z,92981.47
2023-04-02T08:56:08.565Z,92985.44
2023-04-02T08:57:16.699Z,92979.38
2023-04-02T08:58:22.927Z,92996.56
2023-04-02T08:59:34.833Z,92982.41
2023-04-02T09:00:39.904Z,92990.72
2023-04-02T09:01:43.348Z,92990.44
2023-04-02T09:02:43.563Z,92985.88
2023-04-02T09:03:42.967Z,92984.00
2023-04-02T09:04:41.601Z,92978.63
2023-04-02T09:05:43.330Z,92977.44
2023-04-02T09:06:42.034Z,92937.97
2023-04-02T09:07:38.650Z,92970.19
2023-04-02T09:08:36.522Z,92987.44
2023-04-02T09:09:38.165Z,92973.66
2023-04-02T09:10:42.675Z,92974.81
2023-04-02T09:11:47.773Z,92983.16
2023-04-02T09:12:50.600Z,92993.81
2023-04-02T09:13:51.792Z,92979.34
2023-04-02T09:15:18.449Z,92975.13
2023-04-02T09:16:21.323Z,92969.06
2023-04-02T09:17:23.810Z,92975.97
2023-04-02T09:18:20.553Z,92991.66
2023-04-02T09:19:25.214Z,92985.16
2023-04-02T09:20:29.457Z,92984.75
2023-04-02T09:21:41.387Z,92982.41
2023-04-02T09:22:39.355Z,92982.84
2023-04-02T09:23:36.003Z,92987.44
2023-04-02T09:24:32.825Z,92987.09
2023-04-02T09:25:34.405Z,92953.38
2023-04-02T09:26:33.845Z,92985.88
2023-04-02T09:27:34.204Z,92979.00
2023-04-02T09:28:30.963Z,92947.25
2023-04-02T09:29:46.619Z,92974.06
2023-04-02T09:31:01.548Z,92971.34
2023-04-02T09:32:19.405Z,92981.25
2023-04-02T09:33:16.293Z,92985.16
2023-04-02T09:34:33.866Z,92976.75
2023-04-02T09:35:56.388Z,92975.47
2023-04-02T09:36:53.178Z,92964.16
2023-04-02T09:38:30.764Z,92975.16
2023-04-02T09:39:27.517Z,92968.69
2023-04-02T09:40:27.238Z,92897.44
2023-04-02T09:41:28.082Z,92965.88
2023-04-02T09:42:36.467Z,92965.94
2023-04-02T09:43:35.890Z,92959.94
2023-04-02T09:44:33.164Z,92954.50
2023-04-02T09:45:29.894Z,92965.31
2023-04-02T09:46:26.567Z,92967.91
2023-04-02T09:47:26.359Z,92962.06
2023-04-02T09:48:40.803Z,92961.75
2023-04-02T09:49:39.593Z,92966.41
2023-04-02T09:50:36.593Z,92964.09
2023-04-02T09:51:35.164Z,92956.50
2023-04-02T09:52:31.795Z,92956.81
2023-04-02T09:53:33.275Z,92957.28
2023-04-02T09:54:29.852Z,92962.34
2023-04-02T09:55:31.210Z,92959.72
2023-04-02T09:56:28.385Z,92937.63
2023-04-02T09:57:27.921Z,92964.84
2023-04-02T09:58:24.587Z,92956.78
2023-04-02T09:59:22.064Z,92964.41
2023-04-02T10:00:31.907Z,92970.53
2023-04-02T10:01:51.545Z,92925.03
2023-04-02T10:03:02.866Z,92955.56
2023-04-02T10:04:00.432Z,92959.38
2023-04-02T10:05:03.662Z,92960.59
2023-04-02T10:06:12.871Z,92965.97
2023-04-02T10:07:31.078Z,92962.19
2023-04-02T10:08:28.224Z,92965.63
2023-04-02T10:09:30.840Z,92967.91
2023-04-02T10:10:37.227Z,92964.03
2023-04-02T10:11:46.266Z,92968.63
2023-04-02T10:12:48.761Z,92967.09
2023-04-02T10:13:57.494Z,92956.97
2023-04-02T10:14:56.055Z,92905.03
2023-04-02T10:16:14.388Z,92960.81
2023-04-02T10:17:29.717Z,92965.06
2023-04-02T10:18:44.783Z,92965.09
2023-04-02T10:19:47.835Z,92952.72
2023-04-02T10:20:51.304Z,92951.22
2023-04-02T10:21:52.299Z,92953.66
2023-04-02T10:22:49.184Z,92896.09
2023-04-02T10:23:45.913Z,92941.63
2023-04-02T10:24:42.625Z,92954.16
2023-04-02T10:25:48.081Z,92955.13
2023-04-02T10:26:50.748Z,92949.63
2023-04-02T10:27:55.761Z,92945.16
2023-04-02T10:29:23.098Z,92952.38
2023-04-02T10:30:42.235Z,92953.50
2023-04-02T10:31:47.472Z,92925.19
2023-04-02T10:32:56.699Z,92951.97
2023-04-02T10:34:04.511Z,92953.19
2023-04-02T10:35:08.998Z,92956.31
2023-04-02T10:36:49.262Z,92949.59
2023-04-02T10:37:46.170Z,92953.03
2023-04-02T10:38:56.161Z,92935.59
2023-04-02T10:40:10.450Z,92906.22
2023-04-02T10:41:31.659Z,92958.63
2023-04-02T10:43:07.163Z,92951.66
2023-04-02T10:44:19.510Z,92944.59
2023-04-02T10:45:54.443Z,92945.38
2023-04-02T10:46:57.198Z,92946.44
2023-04-02T10:48:03.403Z,92955.72
2023-04-02T10:49:30.627Z,92947.03
2023-04-02T10:50:44.795Z,92948.41
2023-04-02T10:51:50.532Z,92943.28
2023-04-02T10:53:04.781Z,92934.94
2023-04-02T10:54:10.189Z,92937.31
2023-04-02T10:55:18.133Z,92940.88
2023-04-02T10:56:15.668Z,92946.66
2023-04-02T10:57:39.269Z,92943.50
2023-04-02T10:58:38.883Z,92937.44
2023-04-02T10:59:39.652Z,92949.91
2023-04-02T11:00:41.564Z,92935.06
2023-04-02T11:01:43.827Z,92941.56
2023-04-02T11:02:49.500Z,92941.94
2023-04-02T11:03:57.998Z,92880.78
2023-04-02T11:04:59.851Z,92943.47
2023-04-02T11:06:01.984Z,92932.44
2023-04-02T11:07:13.650Z,92875.13
2023-04-02T11:08:36.748Z,92935.50
2023-04-02T11:09:39.080Z,92926.78
2023-04-02T11:10:40.515Z,92924.19
2023-04-02T11:11:43.218Z,92934.81
2023-04-02T11:12:46.916Z,92885.22
2023-04-02T11:13:43.517Z,92935.59
2023-04-02T11:14:41.124Z,92930.59
2023-04-02T11:15:40.867Z,92925.88
2023-04-02T11:16:41.704Z,92927.97
2023-04-02T11:17:40.528Z,92934.41
2023-04-02T11:18:37.537Z,92934.53
2023-04-02T11:19:36.026Z,92941.44
2023-04-02T11:20:48.637Z,92938.75
2023-04-02T11:22:06.040Z,92928.44
2023-04-02T11:23:12.573Z,92942.16
2023-04-02T11:24:34.323Z,92934.97
2023-04-02T11:25:31.179Z,92935.16
2023-04-02T11:26:27.867Z,92933.72
2023-04-02T11:27:31.418Z,92923.09
2023-04-02T11:28:30.874Z,92939.56
2023-04-02T11:29:30.210Z,92931.50
2023-04-02T11:30:27.868Z,92927.53
2023-04-02T11:31:24.555Z,92922.31
2023-04-02T11:32:25.302Z,92920.56
2023-04-02T11:33:38.211Z,92930.03
2023-04-02T11:34:41.575Z,92929.88
2023-04-02T11:35:39.540Z,92927.53
2023-04-02T11:36:52.803Z,92924.91
2023-04-02T11:37:49.564Z,92923.56
2023-04-02T11:38:46.517Z,92929.16
2023-04-02T11:39:56.806Z,92922.41
2023-04-02T11:40:55.126Z,92917.41
2023-04-02T11:42:04.365Z,92918.31
2023-04-02T11:43:50.348Z,92908.38
2023-04-02T11:44:46.985Z,92922.88
2023-04-02T11:45:52.890Z,92915.56
2023-04-02T11:46:51.558Z,92890.88
2023-04-02T11:48:00.968Z,92907.75
2023-04-02T11:49:36.529Z,92926.47
2023-04-02T11:50:38.844Z,92894.56
2023-04-02T11:51:36.215Z,92926.28
2023-04-02T11:52:38.051Z,92916.00
2023-04-02T11:53:35.818Z,92916.34
2023-04-02T11:54:37.979Z,92879.63
2023-04-02T11:55:35.971Z,92912.09
2023-04-02T11:56:54.600Z,92909.84
2023-04-02T11:58:21.134Z,92914.75
2023-04-02T11:59:20.597Z,92915.28
2023-04-02T12:00:45.126Z,92916.63
2023-04-02T12:01:48.449Z,92901.75
2023-04-02T12:03:04.477Z,92900.56
2023-04-02T12:04:24.238Z,92894.28
2023-04-02T12:05:43.141Z,92903.53
2023-04-02T12:07:01.697Z,92902.88
2023-04-02T12:08:24.605Z,92914.38
2023-04-02T12:09:31.012Z,92902.84
2023-04-02T12:10:32.989Z,92902.38
2023-04-02T12:11:59.742Z,92910.09
2023-04-02T12:12:56.367Z,92910.28
2023-04-02T12:13:54.212Z,92906.69
2023-04-02T12:14:56.345Z,92910.31
2023-04-02T12:15:53.035Z,92921.31
2023-04-02T12:16:50.051Z,92914.06
2023-04-02T12:17:46.876Z,92909.34
2023-04-02T12:18:44.424Z,92910.63
2023-04-02T12:19:41.118Z,92915.28
2023-04-02T12:20:38.239Z,92908.34
2023-04-02T12:21:34.951Z,92916.63
2023-04-02T12:22:33.803Z,92877.03
2023-04-02T12:23:36.925Z,92910.81
2023-04-02T12:24:33.615Z,92906.31
2023-04-02T12:25:40.914Z,92907.19
2023-04-02T12:26:38.452Z,92905.38
2023-04-02T12:27:38.167Z,92825.88
2023-04-02T12:28:38.145Z,92907.53
2023-04-02T12:29:35.621Z,92925.00
2023-04-02T12:30:32.321Z,92910.78
2023-04-02T12:31:29.804Z,92905.38
2023-04-02T12:32:31.176Z,92915.56
2023-04-02T12:33:33.810Z,92914.50
2023-04-02T12:34:31.137Z,92835.66
2023-04-02T12:35:34.659Z,92909.06
2023-04-02T12:36:31.914Z,92906.66
2023-04-02T12:37:30.729Z,92896.91
2023-04-02T12:38:34.863Z,92880.88